Time;durP1;ratioP1;P1;durP2;ratioP2;P2;SDS_P1;SDS_P2;PMS_P1;PMS_P2;Temp;Humidity;BMP_temperature;BMP_pressure;BME280_temperature;BME280_humidity;BME280_pressure;Samples;Min_cycle;Max_cycle;Signal;HPM_P1;HPM_P2
2023/11/06 00:00:23;;;;;;;4.53;2.33;;;;;;;16.89;51.16;97932.19;4939565;28;20114;-73
2023/11/06 00:02:48;;;;;;;3.08;1.70;;;;;;;16.94;51.20;97952.75;4939599;28;20090;-73
2023/11/06 00:05:14;;;;;;;2.15;1.30;;;;;;;16.93;51.08;97953.72;4939574;28;20034;-74
2023/11/06 00:07:40;;;;;;;2.00;1.20;;;;;;;16.90;51.08;97962.81;4939916;28;20038;-73
2023/11/06 00:10:09;;;;;;;4.78;2.50;;;;;;;16.89;51.04;97953.28;4972728;28;20093;-74
2023/11/06 00:12:35;;;;;;;2.90;1.75;;;;;;;16.88;51.05;97956.91;4955705;28;20066;-74
2023/11/06 00:15:01;;;;;;;4.45;2.53;;;;;;;16.92;50.98;97957.34;4957598;28;20064;-73
2023/11/06 00:17:26;;;;;;;7.25;4.75;;;;;;;16.96;51.06;97971.84;4942975;28;20077;-74
2023/11/06 00:19:52;;;;;;;6.60;4.55;;;;;;;16.95;50.80;97965.75;4964405;28;20133;-73
2023/11/06 00:22:17;;;;;;;8.60;5.20;;;;;;;16.99;50.92;97968.84;4972974;28;20493;-74
2023/11/06 00:24:43;;;;;;;6.68;3.97;;;;;;;17.03;51.14;97998.31;4953042;28;20061;-75
2023/11/06 00:27:08;;;;;;;6.82;4.13;;;;;;;16.97;51.04;97995.38;4973115;28;20409;-73
2023/11/06 00:29:34;;;;;;;6.78;3.40;;;;;;;17.02;51.09;97994.06;4948440;28;20497;-75
2023/11/06 00:32:02;;;;;;;5.38;3.05;;;;;;;16.97;51.24;97999.84;4966451;28;20047;-74
2023/11/06 00:34:27;;;;;;;4.45;2.67;;;;;;;16.98;51.27;98006.75;4981246;28;20378;-74
2023/11/06 00:36:54;;;;;;;4.47;2.55;;;;;;;17.02;51.32;98023.88;4965198;28;20040;-74
2023/11/06 00:39:19;;;;;;;3.50;2.20;;;;;;;17.01;51.56;98027.47;4994791;28;20115;-74
2023/11/06 00:41:45;;;;;;;3.25;2.20;;;;;;;17.03;51.65;98027.31;4978131;28;20474;-74
2023/11/06 00:44:10;;;;;;;2.70;1.88;;;;;;;17.04;51.76;98037.69;4978419;28;20080;-74
2023/11/06 00:46:36;;;;;;;3.25;1.63;;;;;;;17.05;51.86;98051.69;4977850;28;20088;-74
2023/11/06 00:49:01;;;;;;;2.58;1.70;;;;;;;17.06;52.07;98062.03;4961959;28;20034;-75
2023/11/06 00:51:27;;;;;;;3.38;1.48;;;;;;;17.06;52.21;98077.06;4978141;28;20034;-73
2023/11/06 00:53:52;;;;;;;2.42;1.40;;;;;;;17.06;52.67;98079.69;4961733;28;20027;-74
2023/11/06 00:56:18;;;;;;;2.05;1.30;;;;;;;17.06;52.87;98082.31;4945846;28;20114;-74
2023/11/06 00:58:43;;;;;;;2.63;1.20;;;;;;;17.05;53.20;98073.59;4977690;28;20038;-74
2023/11/06 01:01:09;;;;;;;2.88;1.00;;;;;;;17.01;53.52;98043.31;4977684;28;20038;-74
2023/11/06 01:03:34;;;;;;;3.25;1.20;;;;;;;17.02;53.82;98076.59;4961331;28;20034;-74
2023/11/06 01:06:00;;;;;;;1.55;0.82;;;;;;;17.00;54.10;98060.94;4978166;28;20034;-73
2023/11/06 01:08:25;;;;;;;1.80;1.05;;;;;;;16.93;54.66;98046.00;4945591;28;20034;-74
2023/11/06 01:10:51;;;;;;;1.25;0.65;;;;;;;16.93;54.91;98049.44;4961438;28;20036;-73
2023/11/06 01:13:16;;;;;;;2.45;0.98;;;;;;;16.91;54.82;98048.81;4961487;28;20036;-73
2023/11/06 01:15:42;;;;;;;1.30;0.60;;;;;;;16.88;55.44;98049.16;4945353;28;20030;-74
2023/11/06 01:18:09;;;;;;;3.65;0.50;;;;;;;16.85;55.60;98051.28;4977129;28;20034;-74
2023/11/06 01:20:35;;;;;;;1.48;0.55;;;;;;;16.82;55.81;98061.19;4961904;28;20461;-73
2023/11/06 01:23:00;;;;;;;1.13;0.60;;;;;;;16.75;56.20;98054.16;4961600;28;20066;-74
2023/11/06 01:25:26;;;;;;;1.95;0.50;;;;;;;16.80;56.60;98057.09;4961144;28;20066;-74
2023/11/06 01:27:51;;;;;;;1.92;0.50;;;;;;;16.75;56.46;98049.69;4944581;28;20093;-74
2023/11/06 01:30:18;;;;;;;1.05;0.50;;;;;;;16.70;56.98;98057.31;4961082;28;20498;-74
2023/11/06 01:32:44;;;;;;;1.73;0.50;;;;;;;16.74;56.81;98063.84;4961024;28;20053;-74
2023/11/06 01:35:11;;;;;;;0.73;0.40;;;;;;;16.72;56.75;98059.78;4976838;28;20129;-73
2023/11/06 01:37:40;;;;;;;1.25;0.50;;;;;;;16.69;56.80;98058.28;4977653;28;20405;-71
2023/11/06 01:40:10;;;;;;;1.30;0.50;;;;;;;16.65;56.78;98054.34;4976940;28;20401;-73
2023/11/06 01:42:36;;;;;;;0.98;0.40;;;;;;;16.63;57.30;98056.34;4977547;28;20081;-73
2023/11/06 01:45:02;;;;;;;1.02;0.47;;;;;;;16.63;57.41;98051.06;4976679;28;20417;-73
2023/11/06 01:47:28;;;;;;;2.38;0.60;;;;;;;16.64;57.57;98060.63;4960583;28;20018;-73
2023/11/06 01:49:53;;;;;;;0.60;0.30;;;;;;;16.63;57.65;98064.25;4944646;28;20406;-71
2023/11/06 01:52:20;;;;;;;0.90;0.32;;;;;;;16.60;57.79;98070.69;4960931;28;20085;-73
2023/11/06 01:54:45;;;;;;;1.45;0.32;;;;;;;16.60;57.69;98057.53;4960779;28;20117;-74
2023/11/06 01:57:11;;;;;;;2.53;0.38;;;;;;;16.57;58.06;98051.75;4960236;28;20109;-73
2023/11/06 01:59:37;;;;;;;1.02;0.40;;;;;;;16.55;57.92;98062.47;4960343;28;20115;-74
2023/11/06 02:02:05;;;;;;;0.40;0.28;;;;;;;16.57;58.16;98068.41;4976888;28;20030;-72
2023/11/06 02:04:31;;;;;;;2.47;0.35;;;;;;;16.57;57.89;98080.75;4977078;28;20034;-72
2023/11/06 02:06:57;;;;;;;0.82;0.30;;;;;;;16.57;57.89;98075.47;4960457;28;20398;-72
2023/11/06 02:09:22;;;;;;;1.48;0.40;;;;;;;16.56;58.07;98079.13;4932855;28;20047;-72
2023/11/06 02:11:47;;;;;;;1.13;0.47;;;;;;;16.53;58.12;98077.63;4956783;28;20031;-73
2023/11/06 02:14:13;;;;;;;1.60;0.45;;;;;;;16.48;58.34;98077.34;4949678;28;20023;-73
2023/11/06 02:16:38;;;;;;;0.55;0.40;;;;;;;16.46;58.63;98082.78;4966464;28;20046;-73
2023/11/06 02:19:05;;;;;;;0.65;0.32;;;;;;;16.53;58.54;98101.34;4964672;28;20053;-71
2023/11/06 02:21:32;;;;;;;0.85;0.35;;;;;;;16.50;58.42;98092.97;4966079;28;20042;-72
2023/11/06 02:23:57;;;;;;;0.85;0.30;;;;;;;16.54;58.48;98103.00;4950645;28;20102;-72
2023/11/06 02:26:23;;;;;;;0.70;0.40;;;;;;;16.53;58.33;98100.53;4948466;28;20107;-72
2023/11/06 02:28:52;;;;;;;1.58;0.32;;;;;;;16.49;58.40;98094.75;4984690;28;20034;-71
2023/11/06 02:31:17;;;;;;;1.95;0.40;;;;;;;16.48;58.51;98094.94;4960064;28;20034;-72
2023/11/06 02:33:43;;;;;;;0.82;0.38;;;;;;;16.49;58.79;98107.94;4959037;28;20405;-73
2023/11/06 02:36:09;;;;;;;0.55;0.40;;;;;;;16.44;58.72;98121.63;4975553;28;20121;-72
2023/11/06 02:38:35;;;;;;;0.88;0.38;;;;;;;16.43;59.12;98135.78;4959869;28;20035;-72
2023/11/06 02:41:01;;;;;;;0.82;0.30;;;;;;;16.40;59.39;98141.41;4960088;28;20030;-72
2023/11/06 02:43:26;;;;;;;0.90;0.32;;;;;;;16.44;59.33;98147.16;4993178;28;20038;-73
2023/11/06 02:45:52;;;;;;;1.88;0.50;;;;;;;16.40;59.22;98146.66;4959860;28;20054;-72
2023/11/06 02:48:18;;;;;;;0.60;0.30;;;;;;;16.42;59.44;98151.78;4960289;28;20030;-73
2023/11/06 02:50:44;;;;;;;1.55;0.55;;;;;;;16.43;59.34;98159.50;4975720;28;20117;-71
2023/11/06 02:53:10;;;;;;;0.70;0.30;;;;;;;16.43;59.55;98145.50;4950257;28;20472;-73
2023/11/06 02:55:36;;;;;;;0.68;0.32;;;;;;;16.41;59.68;98143.06;4963957;28;20019;-73
2023/11/06 02:58:03;;;;;;;0.95;0.45;;;;;;;16.37;59.64;98168.06;4965242;28;20034;-73
2023/11/06 03:00:28;;;;;;;0.60;0.40;;;;;;;16.39;59.68;98178.44;4949742;28;20033;-71
2023/11/06 03:02:54;;;;;;;0.80;0.40;;;;;;;16.38;59.83;98182.91;4980936;28;20027;-72
2023/11/06 03:05:20;;;;;;;0.70;0.30;;;;;;;16.37;59.76;98188.34;4981691;28;20031;-72
2023/11/06 03:07:46;;;;;;;0.60;0.30;;;;;;;16.37;59.84;98189.16;4948871;28;20053;-71
2023/11/06 03:10:11;;;;;;;1.45;0.40;;;;;;;16.36;59.80;98198.03;4983072;28;20039;-73
2023/11/06 03:12:37;;;;;;;1.35;0.50;;;;;;;16.36;59.89;98200.66;4963666;28;20030;-73
2023/11/06 03:15:03;;;;;;;1.20;0.50;;;;;;;16.33;59.84;98201.00;4959138;28;20035;-71
2023/11/06 03:17:28;;;;;;;1.98;0.90;;;;;;;16.33;60.02;98198.34;4975514;28;20099;-73
2023/11/06 03:19:53;;;;;;;15.25;7.47;;;;;;;16.30;60.14;98205.78;4975677;28;20037;-71
2023/11/06 03:22:19;;;;;;;16.52;8.93;;;;;;;16.29;60.13;98210.22;4959465;28;20026;-73
2023/11/06 03:24:44;;;;;;;19.02;10.55;;;;;;;16.32;60.17;98224.88;4975269;28;20056;-72
2023/11/06 03:27:10;;;;;;;16.95;10.18;;;;;;;16.30;60.21;98221.59;4974798;28;20086;-72
2023/11/06 03:29:35;;;;;;;17.85;9.57;;;;;;;16.29;60.41;98215.50;4959566;28;20050;-72
2023/11/06 03:32:01;;;;;;;14.15;8.63;;;;;;;16.28;60.42;98227.81;4975345;28;20030;-72
2023/11/06 03:34:26;;;;;;;11.30;7.50;;;;;;;16.26;60.58;98216.66;4974882;28;20046;-72
2023/11/06 03:36:52;;;;;;;10.23;6.22;;;;;;;16.22;60.46;98219.78;4975360;28;20026;-72
2023/11/06 03:39:18;;;;;;;10.23;5.97;;;;;;;16.22;60.59;98209.25;4975409;28;20038;-71
2023/11/06 03:41:44;;;;;;;9.18;5.18;;;;;;;16.19;60.71;98209.56;4959125;28;20048;-72
2023/11/06 03:44:10;;;;;;;7.65;4.40;;;;;;;16.21;60.62;98211.06;4975312;28;20034;-71
2023/11/06 03:46:35;;;;;;;7.45;4.10;;;;;;;16.23;60.59;98210.91;4958815;28;20117;-72
2023/11/06 03:49:01;;;;;;;6.95;4.15;;;;;;;16.23;60.59;98210.91;4959592;28;20118;-72
2023/11/06 03:51:26;;;;;;;7.07;3.85;;;;;;;16.21;60.66;98218.16;4996326;28;20387;-73
2023/11/06 03:53:52;;;;;;;4.85;3.38;;;;;;;16.19;60.67;98218.31;4978833;28;20045;-72
2023/11/06 03:56:18;;;;;;;5.30;2.90;;;;;;;16.19;60.53;98222.75;4996534;28;20034;-72
2023/11/06 03:58:43;;;;;;;6.07;3.08;;;;;;;16.16;60.81;98223.06;4979425;28;20109;-72
2023/11/06 04:01:09;;;;;;;4.00;2.60;;;;;;;16.13;60.66;98212.88;4943500;28;20026;-72
2023/11/06 04:03:35;;;;;;;3.65;2.40;;;;;;;16.13;60.71;98226.03;4976729;28;20023;-72
2023/11/06 04:06:02;;;;;;;4.18;2.50;;;;;;;16.09;60.70;98215.00;4959713;28;20113;-72
2023/11/06 04:08:28;;;;;;;2.97;2.17;;;;;;;16.10;60.82;98229.84;4943829;28;20070;-72
2023/11/06 04:10:54;;;;;;;3.78;2.10;;;;;;;16.06;60.79;98221.41;4943064;28;20057;-72
2023/11/06 04:13:19;;;;;;;2.85;1.90;;;;;;;16.05;60.73;98226.84;4959015;28;20548;-71
2023/11/06 04:15:45;;;;;;;4.25;1.80;;;;;;;16.06;60.63;98231.94;4959043;28;20421;-72
2023/11/06 04:18:10;;;;;;;3.45;1.83;;;;;;;16.00;60.78;98230.00;4942522;28;20042;-73
2023/11/06 04:20:36;;;;;;;3.33;1.80;;;;;;;16.04;60.63;98241.00;4927561;28;20039;-70
2023/11/06 04:23:02;;;;;;;2.53;1.83;;;;;;;16.00;60.54;98256.31;4958435;28;20494;-73
2023/11/06 04:25:27;;;;;;;3.22;1.55;;;;;;;16.01;60.45;98262.41;4942904;28;20027;-71
2023/11/06 04:27:53;;;;;;;3.80;1.70;;;;;;;15.99;60.42;98280.19;4976067;28;20103;-73
2023/11/06 04:30:18;;;;;;;3.15;1.55;;;;;;;15.93;60.43;98275.56;4958980;28;20516;-73
2023/11/06 04:32:44;;;;;;;1.67;1.33;;;;;;;15.93;60.34;98281.63;4942200;28;20038;-74
2023/11/06 04:35:09;;;;;;;2.58;1.25;;;;;;;15.86;60.36;98270.94;4975882;28;20129;-73
2023/11/06 04:37:36;;;;;;;2.42;1.20;;;;;;;15.88;60.31;98284.75;4956259;28;20034;-71
2023/11/06 04:40:05;;;;;;;3.55;1.40;;;;;;;15.88;60.21;98286.56;4958374;28;20057;-74
2023/11/06 04:42:32;;;;;;;1.42;1.17;;;;;;;15.86;60.31;98291.16;4969440;28;20034;-72
2023/11/06 04:44:57;;;;;;;4.45;1.55;;;;;;;15.85;60.17;98281.63;4995399;28;20058;-71
2023/11/06 04:47:23;;;;;;;2.70;1.10;;;;;;;15.84;60.13;98290.50;4978243;28;20041;-71
2023/11/06 04:49:48;;;;;;;1.92;0.95;;;;;;;15.82;60.08;98310.91;4961434;28;20046;-72
2023/11/06 04:52:14;;;;;;;2.05;1.23;;;;;;;15.78;60.01;98306.94;4977847;28;20033;-72
2023/11/06 04:54:43;;;;;;;2.85;1.58;;;;;;;15.75;59.95;98302.81;4977752;28;20026;-74
2023/11/06 04:57:09;;;;;;;4.30;1.98;;;;;;;15.78;60.03;98296.41;4961054;28;20034;-73
2023/11/06 04:59:36;;;;;;;10.95;5.82;;;;;;;15.75;59.92;98300.16;4945706;28;20405;-71
2023/11/06 05:02:01;;;;;;;8.48;5.18;;;;;;;15.86;62.41;98317.47;4960123;28;20030;-72
2023/11/06 05:04:27;;;;;;;10.05;6.18;;;;;;;15.87;61.38;98316.50;4961300;28;20045;-73
2023/11/06 05:06:52;;;;;;;16.30;4.60;;;;;;;15.88;63.19;98311.06;4977590;28;20030;-73
2023/11/06 05:09:18;;;;;;;12.75;6.05;;;;;;;15.92;61.76;98322.09;4977507;28;20506;-75
2023/11/06 05:11:44;;;;;;;14.07;6.38;;;;;;;15.90;61.54;98322.25;4961674;28;20042;-74
2023/11/06 05:14:09;;;;;;;12.63;6.38;;;;;;;15.86;61.08;98323.59;4945404;28;20077;-72
2023/11/06 05:16:36;;;;;;;8.18;5.15;;;;;;;15.89;60.83;98335.56;4944907;28;20418;-71
2023/11/06 05:19:02;;;;;;;13.40;4.75;;;;;;;15.87;60.45;98350.72;4977491;28;20073;-77
2023/11/06 05:21:27;;;;;;;10.25;4.20;;;;;;;15.89;60.45;98351.38;4945294;28;20068;-77
2023/11/06 05:23:53;;;;;;;6.38;3.78;;;;;;;15.86;60.20;98347.28;4994872;28;20065;-76
2023/11/06 05:26:19;;;;;;;6.95;3.30;;;;;;;15.90;59.88;98359.09;4960287;28;20065;-75
2023/11/06 05:28:44;;;;;;;5.45;3.17;;;;;;;16.13;59.48;98360.31;4961247;28;20125;-76
2023/11/06 05:31:10;;;;;;;5.80;3.05;;;;;;;16.36;59.03;98371.88;4977120;28;20125;-76
2023/11/06 05:33:36;;;;;;;6.88;3.22;;;;;;;16.55;58.63;98367.28;4961359;28;20041;-78
2023/11/06 05:36:02;;;;;;;5.10;2.30;;;;;;;16.83;57.88;98370.41;4960965;28;20026;-76
2023/11/06 05:38:28;;;;;;;4.55;2.58;;;;;;;17.21;57.47;98381.25;4960670;28;20041;-76
2023/11/06 05:40:53;;;;;;;4.55;1.98;;;;;;;17.50;56.39;98371.94;4956801;28;20027;-77
2023/11/06 05:43:19;;;;;;;6.38;2.35;;;;;;;17.97;55.33;98379.03;4982787;28;20042;-77
2023/11/06 05:45:44;;;;;;;6.18;2.20;;;;;;;18.49;54.79;98392.59;4976547;28;20417;-78
2023/11/06 05:48:10;;;;;;;5.45;2.10;;;;;;;19.08;53.66;98394.59;4976499;28;20034;-77
2023/11/06 05:50:36;;;;;;;4.85;1.75;;;;;;;19.68;52.74;98392.81;4976589;28;20034;-77
2023/11/06 05:53:01;;;;;;;4.00;1.80;;;;;;;20.27;51.28;98388.41;4992668;28;20043;-77
2023/11/06 05:55:27;;;;;;;5.18;1.85;;;;;;;20.91;49.11;98401.69;4976282;28;20117;-76
2023/11/06 05:57:52;;;;;;;4.03;2.00;;;;;;;21.56;47.42;98403.41;4960460;28;20030;-78
2023/11/06 06:00:18;;;;;;;3.53;1.75;;;;;;;22.23;45.49;98399.16;4976336;28;20038;-76
2023/11/06 06:02:44;;;;;;;5.55;2.72;;;;;;;22.87;44.06;98397.03;4976458;28;20105;-77
2023/11/06 06:05:10;;;;;;;6.30;3.10;;;;;;;23.60;42.07;98407.59;4991746;28;20030;-75
2023/11/06 06:07:36;;;;;;;6.47;2.80;;;;;;;24.33;41.66;98401.16;4951703;28;20037;-72
2023/11/06 06:10:03;;;;;;;5.97;2.50;;;;;;;25.22;40.25;98408.31;4960074;28;20560;-70
2023/11/06 06:12:29;;;;;;;6.20;2.78;;;;;;;26.21;38.26;98416.31;4976045;28;20124;-69
2023/11/06 06:14:55;;;;;;;5.18;2.15;;;;;;;27.12;36.16;98424.25;4959970;28;20482;-68
2023/11/06 06:17:21;;;;;;;6.38;2.15;;;;;;;28.09;34.33;98414.03;4993650;28;20065;-69
2023/11/06 06:19:46;;;;;;;3.75;1.55;;;;;;;29.01;32.33;98418.31;4960047;28;20062;-68
2023/11/06 06:22:13;;;;;;;4.55;1.20;;;;;;;29.88;30.95;98418.75;4943654;28;20038;-68
2023/11/06 06:24:39;;;;;;;3.10;1.30;;;;;;;30.75;29.62;98418.06;4975906;28;20181;-69
2023/11/06 06:27:05;;;;;;;4.28;1.25;;;;;;;31.35;27.98;98419.59;4972542;28;20402;-69
2023/11/06 06:29:30;;;;;;;4.22;1.30;;;;;;;31.93;27.06;98416.13;4972648;28;20066;-67
2023/11/06 06:31:56;;;;;;;3.58;1.10;;;;;;;32.53;26.37;98411.16;4972735;28;20077;-67
2023/11/06 06:34:23;;;;;;;4.00;1.48;;;;;;;33.11;25.34;98418.97;4972843;28;20076;-71
2023/11/06 06:36:49;;;;;;;9.73;1.40;;;;;;;33.65;24.87;98422.13;4956835;28;20089;-68
2023/11/06 06:39:14;;;;;;;6.72;1.45;;;;;;;34.16;23.44;98431.94;4956607;28;20042;-69
2023/11/06 06:41:40;;;;;;;4.07;1.30;;;;;;;34.59;22.63;98429.53;4956493;28;20034;-68
2023/11/06 06:44:05;;;;;;;2.30;1.25;;;;;;;35.21;21.98;98440.69;4972468;28;20101;-68
2023/11/06 06:46:31;;;;;;;3.28;1.40;;;;;;;35.79;21.37;98436.34;4988009;28;20054;-70
2023/11/06 06:48:56;;;;;;;5.05;1.30;;;;;;;36.13;20.84;98441.56;4992179;28;20037;-69
2023/11/06 06:51:22;;;;;;;3.28;1.17;;;;;;;36.40;20.32;98438.25;4956289;28;20090;-68
2023/11/06 06:53:49;;;;;;;2.33;1.20;;;;;;;36.52;20.19;98448.66;4956309;28;20085;-68
2023/11/06 06:56:15;;;;;;;4.30;1.33;;;;;;;36.33;20.31;98445.16;4973397;28;20111;-68
2023/11/06 06:58:40;;;;;;;3.75;1.20;;;;;;;35.84;21.02;98442.50;4940130;28;20110;-70
2023/11/06 07:01:08;;;;;;;5.32;1.27;;;;;;;35.22;22.20;98444.22;4958182;28;20031;-69
2023/11/06 07:03:35;;;;;;;2.30;0.90;;;;;;;34.78;23.21;98443.25;4973535;28;20054;-69
2023/11/06 07:06:01;;;;;;;4.80;1.23;;;;;;;34.42;23.21;98444.28;4973301;28;20035;-68
2023/11/06 07:08:26;;;;;;;3.17;1.00;;;;;;;34.12;23.34;98449.84;4980323;28;20109;-67
2023/11/06 07:10:52;;;;;;;5.22;1.10;;;;;;;33.94;23.61;98451.28;4992117;28;20034;-69
2023/11/06 07:13:17;;;;;;;2.55;1.10;;;;;;;33.87;23.50;98454.28;4973397;28;20141;-69
2023/11/06 07:15:43;;;;;;;2.88;1.00;;;;;;;33.78;23.65;98462.19;4992558;28;20542;-67
2023/11/06 07:18:08;;;;;;;3.00;0.90;;;;;;;33.67;23.98;98458.66;4975399;28;20045;-69
2023/11/06 07:20:34;;;;;;;2.38;1.00;;;;;;;33.60;24.65;98452.72;4975347;28;20442;-70
2023/11/06 07:23:00;;;;;;;2.03;0.80;;;;;;;33.57;23.91;98452.47;4975262;28;20046;-71
2023/11/06 07:25:26;;;;;;;4.30;0.90;;;;;;;33.45;24.04;98453.59;4971464;28;20027;-70
2023/11/06 07:27:51;;;;;;;5.28;0.93;;;;;;;33.59;24.04;98463.81;4944554;28;20038;-71
2023/11/06 07:30:17;;;;;;;3.92;0.68;;;;;;;33.70;23.68;98468.97;4957608;28;20486;-72
2023/11/06 07:32:42;;;;;;;3.58;0.80;;;;;;;33.64;23.42;98466.53;4977874;28;20121;-72
2023/11/06 07:35:09;;;;;;;4.00;0.90;;;;;;;33.86;22.82;98471.63;4996190;28;20045;-71
2023/11/06 07:37:35;;;;;;;5.97;1.10;;;;;;;33.84;23.14;98477.31;4977846;28;20106;-70
2023/11/06 07:40:00;;;;;;;3.13;1.30;;;;;;;33.80;22.13;98480.84;4994210;28;20046;-72
2023/11/06 07:42:26;;;;;;;3.28;1.30;;;;;;;33.85;22.45;98481.63;4943844;28;20034;-71
2023/11/06 07:44:51;;;;;;;6.60;1.73;;;;;;;33.93;23.01;98480.25;4951983;28;20062;-71
2023/11/06 07:47:17;;;;;;;4.80;2.10;;;;;;;34.17;22.85;98493.97;4959334;28;20042;-71
2023/11/06 07:49:42;;;;;;;9.35;3.08;;;;;;;33.99;22.42;98491.88;4973565;28;20047;-72
2023/11/06 07:52:09;;;;;;;9.05;3.38;;;;;;;33.97;22.38;98494.88;4943716;28;20038;-71
2023/11/06 07:54:41;;;;;;;12.38;4.25;;;;;;;34.04;22.91;98491.84;4975473;28;20446;-72
2023/11/06 07:57:09;;;;;;;13.38;4.43;;;;;;;33.83;22.83;98491.13;4975826;28;20121;-73
2023/11/06 07:59:40;;;;;;;15.82;4.38;;;;;;;33.84;22.45;98496.28;4959475;28;20038;-71
2023/11/06 08:02:10;;;;;;;10.75;3.60;;;;;;;33.92;22.65;98503.00;4959447;28;20023;-71
2023/11/06 08:04:41;;;;;;;10.68;3.10;;;;;;;33.93;23.04;98506.53;4975636;28;20023;-71
2023/11/06 08:07:07;;;;;;;12.02;2.75;;;;;;;34.06;23.16;98514.88;4959335;28;20093;-72
2023/11/06 08:09:33;;;;;;;5.10;1.40;;;;;;;34.22;23.06;98512.09;4975483;28;20035;-72
2023/11/06 08:11:59;;;;;;;4.95;1.58;;;;;;;33.96;23.46;98514.09;4975489;28;20026;-72
2023/11/06 08:14:24;;;;;;;7.88;1.45;;;;;;;33.98;23.63;98514.63;4959143;28;20102;-71
2023/11/06 08:16:50;;;;;;;3.92;1.05;;;;;;;34.20;22.99;98525.91;4975340;28;20031;-71
2023/11/06 08:19:15;;;;;;;6.25;1.08;;;;;;;34.39;23.03;98522.59;4958980;28;20047;-71
2023/11/06 08:21:41;;;;;;;4.07;1.10;;;;;;;34.56;22.41;98527.66;4976655;28;20030;-71
2023/11/06 08:24:07;;;;;;;5.00;1.38;;;;;;;34.78;22.40;98535.44;4976356;28;20113;-71
2023/11/06 08:26:32;;;;;;;3.33;1.13;;;;;;;34.94;22.08;98528.78;4976802;28;20374;-71
2023/11/06 08:28:58;;;;;;;3.28;1.05;;;;;;;35.00;21.84;98540.44;4975436;28;20039;-72
2023/11/06 08:31:24;;;;;;;6.25;1.15;;;;;;;35.11;21.73;98533.81;4975034;28;20085;-71
2023/11/06 08:33:50;;;;;;;7.32;1.20;;;;;;;35.29;21.69;98539.69;4974951;28;20530;-76
2023/11/06 08:36:16;;;;;;;5.47;1.10;;;;;;;35.43;21.55;98532.50;4959081;28;20062;-75
2023/11/06 08:38:42;;;;;;;7.43;1.35;;;;;;;35.65;21.20;98533.91;4976278;28;20137;-75
2023/11/06 08:41:09;;;;;;;3.95;1.05;;;;;;;35.90;20.43;98532.88;4974858;28;20522;-72
2023/11/06 08:43:35;;;;;;;5.57;1.10;;;;;;;36.15;19.95;98528.22;4974933;28;20038;-76
2023/11/06 08:46:02;;;;;;;9.63;1.10;;;;;;;36.79;18.97;98536.94;4974315;28;20361;-71
2023/11/06 08:48:27;;;;;;;2.92;1.00;;;;;;;37.59;18.42;98532.38;4975420;28;20478;-72
2023/11/06 08:50:53;;;;;;;6.93;1.20;;;;;;;38.90;16.99;98530.25;4975897;28;20039;-71
2023/11/06 08:53:18;;;;;;;2.08;0.90;;;;;;;40.16;15.64;98522.91;4974870;28;20038;-72
2023/11/06 08:55:44;;;;;;;5.68;1.33;;;;;;;41.16;14.76;98529.41;4958673;28;20043;-71
2023/11/06 08:58:15;;;;;;;5.13;1.15;;;;;;;42.12;13.77;98518.13;4976201;28;20039;-72
2023/11/06 09:00:41;;;;;;;4.13;1.30;;;;;;;43.12;13.12;98525.78;4974744;28;20101;-71
2023/11/06 09:03:09;;;;;;;4.05;1.30;;;;;;;43.87;12.42;98524.78;4974758;28;20035;-72
2023/11/06 09:05:35;;;;;;;3.97;1.20;;;;;;;44.24;11.83;98534.97;4958511;28;20038;-71
2023/11/06 09:08:00;;;;;;;5.20;1.23;;;;;;;44.11;12.02;98531.41;4974248;28;20069;-75
2023/11/06 09:10:27;;;;;;;3.37;1.00;;;;;;;43.33;12.80;98536.72;4957469;28;20047;-71
2023/11/06 09:12:53;;;;;;;6.82;1.10;;;;;;;42.04;13.94;98537.38;4975345;28;20042;-72
2023/11/06 09:15:18;;;;;;;5.05;1.13;;;;;;;40.55;15.33;98534.91;4974115;28;20031;-72
2023/11/06 09:17:45;;;;;;;2.47;0.70;;;;;;;39.68;16.29;98532.72;4958100;28;20082;-72
2023/11/06 09:20:11;;;;;;;2.75;0.70;;;;;;;38.78;17.29;98527.25;4974311;28;20026;-70
2023/11/06 09:22:37;;;;;;;4.43;1.00;;;;;;;38.33;17.95;98522.50;4974625;28;20034;-72
2023/11/06 09:25:05;;;;;;;3.92;0.85;;;;;;;38.26;17.58;98522.94;4975361;28;20470;-72
2023/11/06 09:27:33;;;;;;;6.07;0.95;;;;;;;37.92;17.13;98528.78;4974134;28;20081;-71
2023/11/06 09:29:58;;;;;;;8.13;1.00;;;;;;;37.60;17.37;98538.63;4973969;28;20034;-71
2023/11/06 09:32:24;;;;;;;3.10;0.85;;;;;;;37.50;17.39;98530.63;4974192;28;20502;-71
2023/11/06 09:34:49;;;;;;;5.63;0.90;;;;;;;37.52;17.51;98526.50;4973793;28;20030;-72
2023/11/06 09:37:15;;;;;;;2.30;0.70;;;;;;;37.49;17.67;98524.38;4974000;28;20031;-71
2023/11/06 09:39:43;;;;;;;3.15;0.82;;;;;;;37.57;17.75;98529.13;4973886;28;20101;-71
2023/11/06 09:42:10;;;;;;;2.22;0.70;;;;;;;37.40;17.68;98520.72;4957527;28;20047;-73
2023/11/06 09:44:36;;;;;;;4.05;0.90;;;;;;;37.50;17.85;98523.28;4960331;28;20409;-71
2023/11/06 09:47:02;;;;;;;4.20;1.20;;;;;;;37.16;17.54;98529.00;4976777;28;20129;-74
2023/11/06 09:49:29;;;;;;;7.10;1.48;;;;;;;37.02;17.58;98521.63;4960450;28;20103;-74
2023/11/06 09:51:55;;;;;;;;;;;;;;;37.00;17.72;98523.00;4961120;28;20022;-76
2023/11/06 09:54:21;;;;;;;4.75;1.25;;;;;;;36.96;18.55;98514.66;4994413;28;20009;-73
2023/11/06 09:56:46;;;;;;;6.50;1.30;;;;;;;36.85;18.69;98519.44;4994060;28;20488;-73
2023/11/06 09:59:12;;;;;;;8.07;1.02;;;;;;;36.64;19.06;98516.19;4960865;28;20033;-72
2023/11/06 10:01:38;;;;;;;4.65;0.90;;;;;;;36.36;19.71;98524.19;4944903;28;20414;-71
2023/11/06 10:04:04;;;;;;;6.55;0.90;;;;;;;36.19;19.83;98524.63;4977010;28;20038;-72
2023/11/06 10:06:31;;;;;;;5.45;0.85;;;;;;;36.12;19.97;98521.47;4944425;28;20038;-73
2023/11/06 10:08:57;;;;;;;4.90;1.20;;;;;;;35.79;19.81;98523.22;4960668;28;20502;-72
2023/11/06 10:11:23;;;;;;;3.95;1.23;;;;;;;35.53;19.48;98523.44;4959969;28;20081;-73
2023/11/06 10:13:53;;;;;;;7.18;1.10;;;;;;;35.08;19.54;98528.97;4945054;28;20124;-71
2023/11/06 10:16:23;;;;;;;3.05;0.82;;;;;;;35.01;19.34;98522.25;4944495;28;20042;-71
2023/11/06 10:18:49;;;;;;;4.60;1.00;;;;;;;34.83;19.59;98507.47;4960520;28;20106;-73
2023/11/06 10:21:28;;;;;;;3.22;1.00;;;;;;;34.58;19.33;98520.06;4960331;28;20426;-71
2023/11/06 10:23:59;;;;;;;6.95;1.10;;;;;;;34.56;19.78;98512.22;4944170;28;20039;-73
2023/11/06 10:26:27;;;;;;;3.67;1.15;;;;;;;34.56;19.78;98512.22;4960732;28;20161;-72
2023/11/06 10:29:12;;;;;;;4.20;0.90;;;;;;;34.46;19.96;98512.28;4944247;28;20096;-72
2023/11/06 10:31:41;;;;;;;3.08;0.88;;;;;;;34.45;19.73;98504.44;4959933;28;20398;-72
2023/11/06 10:34:29;;;;;;;5.50;0.90;;;;;;;34.34;19.78;98500.97;4960362;28;20035;-72
2023/11/06 10:37:06;;;;;;;3.70;0.80;;;;;;;34.31;19.81;98509.66;4975786;28;20042;-71
2023/11/06 10:39:32;;;;;;;3.58;0.88;;;;;;;34.24;19.88;98513.47;4960375;28;20032;-72
2023/11/06 10:42:05;;;;;;;4.45;0.93;;;;;;;34.18;20.14;98511.03;4976090;28;20034;-75
2023/11/06 10:44:32;;;;;;;6.75;1.10;;;;;;;34.07;20.40;98508.34;4943872;28;20117;-72
2023/11/06 10:47:06;;;;;;;6.53;1.00;;;;;;;34.06;20.16;98512.16;4960261;28;20026;-71
2023/11/06 10:49:52;;;;;;;5.25;1.05;;;;;;;33.88;20.26;98500.03;4945162;28;20109;-73
2023/11/06 10:52:18;;;;;;;3.60;1.05;;;;;;;33.84;20.06;98495.44;4959966;28;20041;-73
2023/11/06 10:54:44;;;;;;;3.67;0.98;;;;;;;33.77;20.28;98500.34;4959649;28;20037;-73
2023/11/06 10:57:09;;;;;;;5.80;0.80;;;;;;;33.69;20.48;98499.78;4959756;28;20027;-72
2023/11/06 10:59:35;;;;;;;2.75;0.65;;;;;;;33.54;20.23;98499.81;4942726;28;20038;-72
2023/11/06 11:02:02;;;;;;;5.85;0.73;;;;;;;33.41;20.36;98498.50;4975782;28;20027;-75
2023/11/06 11:04:29;;;;;;;3.47;0.80;;;;;;;33.28;20.45;98499.06;4959898;28;20077;-72
2023/11/06 11:06:55;;;;;;;3.90;0.80;;;;;;;33.04;19.97;98502.28;4974960;28;20038;-70
2023/11/06 11:09:21;;;;;;;3.60;0.90;;;;;;;32.78;20.02;98493.31;4975706;28;20117;-72
2023/11/06 11:11:46;;;;;;;3.25;0.82;;;;;;;32.62;20.32;98487.06;4942545;28;20165;-71
2023/11/06 11:14:15;;;;;;;3.20;0.90;;;;;;;32.52;20.58;98487.84;4959630;28;20093;-74
2023/11/06 11:16:41;;;;;;;1.77;0.70;;;;;;;32.47;20.38;98490.56;4959757;28;20110;-73
2023/11/06 11:19:36;;;;;;;6.10;0.90;;;;;;;32.21;20.02;98482.41;4975603;28;20026;-72
2023/11/06 11:22:06;;;;;;;3.80;0.88;;;;;;;31.86;19.68;98488.41;4898499;29;20508;-71
2023/11/06 11:24:41;;;;;;;3.85;1.00;;;;;;;31.78;20.60;98483.50;4882993;29;20535;-70
2023/11/06 11:27:10;;;;;;;3.63;0.80;;;;;;;31.74;21.04;98473.25;4897935;29;20139;-73
2023/11/06 11:29:56;;;;;;;3.63;0.68;;;;;;;31.29;20.67;98471.84;4898463;29;20047;-72